Time,TemperatureF,DewpointF,PressureIn,WindDirection,WindDirectionDegrees,WindSpeedMPH,WindSpeedGustMPH,Humidity,HourlyPrecipIn,Conditions,Clouds,dailyrainin,SoftwareType,DateUTC
2013-08-23 00:01:00,71.1,40.5,29.44,North,2,0.0,2.7,33,0.00,,,0.00,VWS V14.01,2013-08-23 04:01:00,
2013-08-23 00:06:00,71.1,39.7,29.44,NW,319,2.7,2.7,32,0.00,,,0.00,VWS V14.01,2013-08-23 04:06:00,
2013-08-23 00:11:00,71.1,39.7,29.44,WNW,290,0.0,0.0,32,0.00,,,0.00,VWS V14.01,2013-08-23 04:11:00,
2013-08-23 00:16:00,71.1,38.9,29.44,North,7,3.1,3.1,31,0.00,,,0.00,VWS V14.01,2013-08-23 04:16:00,
2013-08-23 00:21:00,71.1,38.9,29.44,ESE,109,0.0,0.0,31,0.00,,,0.00,VWS V14.01,2013-08-23 04:21:00,
2013-08-23 00:26:00,71.1,38.1,29.44,North,353,0.0,3.6,30,0.00,,,0.00,VWS V14.01,2013-08-23 04:26:00,
2013-08-23 00:31:00,71.1,38.9,29.44,SSE,152,0.0,0.0,31,0.00,,,0.00,VWS V14.01,2013-08-23 04:31:00,
2013-08-23 00:36:00,71.1,38.1,29.44,SE,137,0.0,0.0,30,0.00,,,0.00,VWS V14.01,2013-08-23 04:36:00,
2013-08-23 00:41:00,70.9,38.8,29.44,NNE,14,0.0,0.0,31,0.00,,,0.00,VWS V14.01,2013-08-23 04:41:00,
2013-08-23 00:46:00,70.9,38.8,29.44,ESE,118,0.0,0.0,31,0.00,,,0.00,VWS V14.01,2013-08-23 04:46:00,
2013-08-23 00:51:00,70.9,39.6,29.44,ENE,77,0.0,0.0,32,0.00,,,0.00,VWS V14.01,2013-08-23 04:51:00,
2013-08-23 00:56:00,70.7,39.4,29.44,NW,306,0.0,0.0,32,0.00,,,0.00,VWS V14.01,2013-08-23 04:56:00,
2013-08-23 01:01:00,70.7,39.4,29.44,NW,316,0.0,0.0,32,0.00,,,0.00,VWS V14.01,2013-08-23 05:01:00,
2013-08-23 01:06:00,70.9,39.6,29.44,NW,311,2.2,2.2,32,0.00,,,0.00,VWS V14.01,2013-08-23 05:06:00,
2013-08-23 01:11:00,70.9,39.6,29.44,NW,326,0.0,0.0,32,0.00,,,0.00,VWS V14.01,2013-08-23 05:11:00,
2013-08-23 01:16:00,71.1,39.7,29.44,NNW,346,2.2,2.2,32,0.00,,,0.00,VWS V14.01,2013-08-23 05:16:00,
2013-08-23 01:21:00,71.1,39.7,29.44,WNW,296,0.0,0.0,32,0.00,,,0.00,VWS V14.01,2013-08-23 05:21:00,
2013-08-23 01:26:00,70.9,39.6,29.44,East,82,0.0,0.0,32,0.00,,,0.00,VWS V14.01,2013-08-23 05:26:00,
2013-08-23 01:31:00,70.9,39.6,29.44,SE,126,0.0,0.0,32,0.00,,,0.00,VWS V14.01,2013-08-23 05:31:00,
2013-08-23 01:36:00,70.9,39.6,29.44,SE,126,0.0,0.0,32,0.00,,,0.00,VWS V14.01,2013-08-23 05:36:00,
2013-08-23 01:41:00,70.9,39.6,29.44,SE,126,0.0,0.0,32,0.00,,,0.00,VWS V14.01,2013-08-23 05:41:00,
2013-08-23 01:46:00,70.7,39.4,29.44,WNW,297,0.0,0.0,32,0.00,,,0.00,VWS V14.01,2013-08-23 05:46:00,
2013-08-23 01:51:00,70.7,39.4,29.44,NW,322,0.0,0.0,32,0.00,,,0.00,VWS V14.01,2013-08-23 05:51:00,
2013-08-23 01:56:00,70.7,39.4,29.44,East,81,0.0,0.0,32,0.00,,,0.00,VWS V14.01,2013-08-23 05:56:00,
2013-08-23 02:01:00,70.9,39.6,29.44,NW,305,0.0,0.0,32,0.00,,CLR,0.00,VWS V14.01,2013-08-23 06:01:00,
2013-08-23 02:06:00,70.7,39.4,29.44,NW,307,3.1,3.1,32,0.00,,CLR,0.00,VWS V14.01,2013-08-23 06:06:00,
2013-08-23 02:11:00,70.7,39.4,29.44,NW,305,0.0,0.0,32,0.00,,CLR,0.00,VWS V14.01,2013-08-23 06:11:00,
2013-08-23 02:16:00,70.9,39.6,29.44,NW,318,0.0,0.0,32,0.00,,CLR,0.00,VWS V14.01,2013-08-23 06:16:00,
2013-08-23 02:21:00,71.1,39.7,29.44,NE,39,2.7,2.7,32,0.00,,CLR,0.00,VWS V14.01,2013-08-23 06:21:00,
2013-08-23 02:26:00,71.2,39.9,29.44,SE,131,0.0,0.0,32,0.00,,CLR,0.00,VWS V14.01,2013-08-23 06:26:00,
2013-08-23 02:31:00,71.4,40.0,29.44,ESE,110,3.1,3.1,32,0.00,,CLR,0.00,VWS V14.01,2013-08-23 06:31:00,
2013-08-23 02:36:00,71.4,39.2,29.44,SE,142,0.0,0.0,31,0.00,,CLR,0.00,VWS V14.01,2013-08-23 06:36:00,
2013-08-23 02:41:00,71.6,36.8,29.44,ESE,120,3.6,3.6,28,0.00,,CLR,0.00,VWS V14.01,2013-08-23 06:41:00,
2013-08-23 02:46:00,71.8,36.0,29.44,NNE,14,4.0,4.0,27,0.00,,CLR,0.00,VWS V14.01,2013-08-23 06:46:00,
2013-08-23 02:51:00,72.0,36.2,29.44,NW,318,0.0,0.0,27,0.00,,CLR,0.00,VWS V14.01,2013-08-23 06:51:00,
2013-08-23 02:56:00,72.0,35.2,29.44,NW,326,2.7,2.7,26,0.00,,CLR,0.00,VWS V14.01,2013-08-23 06:56:00,
2013-08-23 03:01:00,72.1,34.4,29.44,North,353,0.0,0.0,25,0.00,,BKN110,0.00,VWS V14.01,2013-08-23 07:01:00,
2013-08-23 03:06:00,72.1,33.4,29.44,NNW,335,5.8,5.8,24,0.00,,BKN110,0.00,VWS V14.01,2013-08-23 07:06:00,
2013-08-23 03:11:00,72.1,33.4,29.44,North,349,0.0,0.0,24,0.00,,BKN110,0.00,VWS V14.01,2013-08-23 07:11:00,
2013-08-23 03:16:00,72.1,33.4,29.44,NW,308,4.9,4.9,24,0.00,,BKN110,0.00,VWS V14.01,2013-08-23 07:16:00,
2013-08-23 03:21:00,72.1,33.4,29.44,North,350,3.6,3.6,24,0.00,,BKN110,0.00,VWS V14.01,2013-08-23 07:21:00,
2013-08-23 03:26:00,72.0,33.2,29.44,NNW,346,0.0,0.0,24,0.00,,BKN110,0.00,VWS V14.01,2013-08-23 07:26:00,
2013-08-23 03:31:00,72.0,33.2,29.44,WNW,301,3.6,3.6,24,0.00,,BKN110,0.00,VWS V14.01,2013-08-23 07:31:00,
2013-08-23 03:36:00,71.8,34.1,29.44,North,357,3.6,3.6,25,0.00,,BKN110,0.00,VWS V14.01,2013-08-23 07:36:00,
2013-08-23 03:41:00,71.6,34.0,29.44,NW,322,2.7,6.3,25,0.00,,BKN110,0.00,VWS V14.01,2013-08-23 07:41:00,
2013-08-23 03:46:00,71.4,34.8,29.44,NNW,336,0.0,0.0,26,0.00,,BKN110,0.00,VWS V14.01,2013-08-23 07:46:00,
2013-08-23 03:51:00,71.1,35.4,29.44,North,350,0.0,0.0,27,0.00,,BKN110,0.00,VWS V14.01,2013-08-23 07:51:00,
2013-08-23 03:56:00,71.1,35.4,29.44,NW,308,0.0,0.0,27,0.00,,BKN110,0.00,VWS V14.01,2013-08-23 07:56:00,
2013-08-23 04:01:00,70.5,35.9,29.44,NNE,15,0.0,0.0,28,0.00,,SCT110,0.00,VWS V14.01,2013-08-23 08:01:00,
2013-08-23 04:06:00,70.3,37.5,29.44,NNW,335,0.0,0.0,30,0.00,,SCT110,0.00,VWS V14.01,2013-08-23 08:06:00,
2013-08-23 04:11:00,70.0,38.0,29.44,NNE,25,0.0,0.0,31,0.00,,SCT110,0.00,VWS V14.01,2013-08-23 08:11:00,
2013-08-23 04:16:00,69.8,38.6,29.44,NNW,339,0.0,0.0,32,0.00,,SCT110,0.00,VWS V14.01,2013-08-23 08:16:00,
2013-08-23 04:21:00,69.4,38.3,29.44,NE,43,0.0,0.0,32,0.00,,SCT110,0.00,VWS V14.01,2013-08-23 08:21:00,
2013-08-23 04:26:00,69.3,38.2,29.44,WNW,295,3.6,3.6,32,0.00,,SCT110,0.00,VWS V14.01,2013-08-23 08:26:00,
2013-08-23 04:31:00,69.3,39.0,29.44,NW,305,0.0,0.0,33,0.00,,SCT110,0.00,VWS V14.01,2013-08-23 08:31:00,
2013-08-23 04:36:00,69.1,38.8,29.44,NW,305,0.0,0.0,33,0.00,,SCT110,0.00,VWS V14.01,2013-08-23 08:36:00,
2013-08-23 04:41:00,68.9,38.6,29.44,NNE,14,0.0,0.0,33,0.00,,SCT110,0.00,VWS V14.01,2013-08-23 08:41:00,
2013-08-23 04:46:00,68.7,38.5,29.44,NNE,14,0.0,0.0,33,0.00,,SCT110,0.00,VWS V14.01,2013-08-23 08:46:00,
2013-08-23 04:51:00,68.4,38.9,29.44,NNE,14,0.0,0.0,34,0.00,,SCT110,0.00,VWS V14.01,2013-08-23 08:51:00,
2013-08-23 04:56:00,68.2,38.8,29.47,NNE,14,0.0,0.0,34,0.00,,SCT110,0.00,VWS V14.01,2013-08-23 08:56:00,
2013-08-23 05:01:00,67.8,39.2,29.47,NW,326,4.0,4.0,35,0.00,,CLR,0.00,VWS V14.01,2013-08-23 09:01:00,
2013-08-23 05:06:00,68.0,39.3,29.47,NW,312,2.7,2.7,35,0.00,,CLR,0.00,VWS V14.01,2013-08-23 09:06:00,
2013-08-23 05:11:00,68.4,38.9,29.47,NNW,337,2.7,2.7,34,0.00,,CLR,0.00,VWS V14.01,2013-08-23 09:11:00,
2013-08-23 05:16:00,68.4,38.9,29.47,NNW,333,3.1,4.0,34,0.00,,CLR,0.00,VWS V14.01,2013-08-23 09:16:00,
2013-08-23 05:21:00,68.5,39.1,29.47,NW,309,3.1,3.1,34,0.00,,CLR,0.00,VWS V14.01,2013-08-23 09:21:00,
2013-08-23 05:26:00,68.5,38.3,29.47,NW,323,2.7,2.7,33,0.00,,CLR,0.00,VWS V14.01,2013-08-23 09:26:00,
2013-08-23 05:31:00,68.5,38.3,29.47,NW,320,2.7,4.9,33,0.00,,CLR,0.00,VWS V14.01,2013-08-23 09:31:00,
2013-08-23 05:36:00,68.4,38.2,29.47,NE,53,0.0,0.0,33,0.00,,CLR,0.00,VWS V14.01,2013-08-23 09:36:00,
2013-08-23 05:41:00,68.4,38.2,29.47,NNE,24,0.0,0.0,33,0.00,,CLR,0.00,VWS V14.01,2013-08-23 09:41:00,
2013-08-23 05:46:00,68.2,38.0,29.47,NNE,24,0.0,0.0,33,0.00,,CLR,0.00,VWS V14.01,2013-08-23 09:46:00,
2013-08-23 05:51:00,68.0,37.8,29.47,NNE,24,0.0,0.0,33,0.00,,CLR,0.00,VWS V14.01,2013-08-23 09:51:00,
2013-08-23 05:56:00,67.8,37.7,29.47,NNE,24,0.0,0.0,33,0.00,,CLR,0.00,VWS V14.01,2013-08-23 09:56:00,
2013-08-23 06:01:00,67.5,38.1,29.47,NNE,24,0.0,0.0,34,0.00,,CLR,0.00,VWS V14.01,2013-08-23 10:01:00,
2013-08-23 06:06:00,66.9,37.7,29.47,NNE,24,0.0,0.0,34,0.00,,CLR,0.00,VWS V14.01,2013-08-23 10:06:00,
2013-08-23 06:11:00,66.7,37.5,29.47,NNE,24,0.0,0.0,34,0.00,,CLR,0.00,VWS V14.01,2013-08-23 10:11:00,
2013-08-23 06:16:00,66.4,37.2,29.47,NNE,24,0.0,0.0,34,0.00,,CLR,0.00,VWS V14.01,2013-08-23 10:16:00,
2013-08-23 06:21:00,66.2,37.8,29.47,NNE,24,0.0,0.0,35,0.00,,CLR,0.00,VWS V14.01,2013-08-23 10:21:00,
2013-08-23 06:26:00,65.8,38.2,29.50,NNE,24,0.0,0.0,36,0.00,,CLR,0.00,VWS V14.01,2013-08-23 10:26:00,
2013-08-23 06:31:00,65.7,38.7,29.50,NNE,24,0.0,0.0,37,0.00,,CLR,0.00,VWS V14.01,2013-08-23 10:31:00,
2013-08-23 06:36:00,65.5,39.2,29.50,SSE,153,0.0,0.0,38,0.00,,CLR,0.00,VWS V14.01,2013-08-23 10:36:00,
2013-08-23 06:41:00,65.3,39.7,29.50,SE,144,0.0,0.0,39,0.00,,CLR,0.00,VWS V14.01,2013-08-23 10:41:00,
2013-08-23 06:46:00,65.1,40.2,29.50,SE,144,0.0,0.0,40,0.00,,CLR,0.00,VWS V14.01,2013-08-23 10:46:00,
2013-08-23 06:51:00,65.1,40.9,29.50,SE,144,0.0,0.0,41,0.00,,CLR,0.00,VWS V14.01,2013-08-23 10:51:00,
2013-08-23 06:56:00,65.1,41.5,29.50,SE,144,0.0,0.0,42,0.00,,CLR,0.00,VWS V14.01,2013-08-23 10:56:00,
2013-08-23 07:01:00,65.1,41.5,29.50,SE,144,0.0,0.0,42,0.00,,CLR,0.00,VWS V14.01,2013-08-23 11:01:00,
2013-08-23 07:06:00,65.1,42.1,29.50,SE,144,0.0,0.0,43,0.00,,CLR,0.00,VWS V14.01,2013-08-23 11:06:00,
2013-08-23 07:11:00,65.3,42.2,29.50,SE,144,0.0,0.0,43,0.00,,CLR,0.00,VWS V14.01,2013-08-23 11:11:00,
2013-08-23 07:16:00,65.3,42.2,29.50,SE,144,0.0,0.0,43,0.00,,CLR,0.00,VWS V14.01,2013-08-23 11:16:00,
2013-08-23 07:21:00,65.5,43.0,29.50,SE,144,0.0,0.0,44,0.00,,CLR,0.00,VWS V14.01,2013-08-23 11:21:00,
2013-08-23 07:26:00,65.7,43.2,29.50,SE,144,0.0,0.0,44,0.00,,CLR,0.00,VWS V14.01,2013-08-23 11:26:00,
2013-08-23 07:31:00,65.7,43.2,29.50,SE,144,0.0,0.0,44,0.00,,CLR,0.00,VWS V14.01,2013-08-23 11:31:00,
2013-08-23 07:36:00,65.8,43.9,29.50,SE,144,0.0,0.0,45,0.00,,CLR,0.00,VWS V14.01,2013-08-23 11:36:00,
2013-08-23 07:41:00,65.8,43.9,29.53,SE,144,0.0,0.0,45,0.00,,CLR,0.00,VWS V14.01,2013-08-23 11:41:00,
2013-08-23 07:46:00,66.4,44.4,29.53,SE,144,0.0,0.0,45,0.00,,CLR,0.00,VWS V14.01,2013-08-23 11:46:00,
2013-08-23 07:51:00,66.6,44.6,29.53,SE,144,0.0,0.0,45,0.00,,CLR,0.00,VWS V14.01,2013-08-23 11:51:00,
2013-08-23 07:56:00,66.9,44.9,29.53,SE,144,0.0,0.0,45,0.00,,CLR,0.00,VWS V14.01,2013-08-23 11:56:00,
2013-08-23 08:01:00,67.1,42.0,29.53,NW,318,2.7,3.6,40,0.00,,CLR,0.00,VWS V14.01,2013-08-23 12:01:00,
2013-08-23 08:06:00,67.5,41.0,29.53,NW,304,0.0,0.0,38,0.00,,CLR,0.00,VWS V14.01,2013-08-23 12:06:00,
2013-08-23 08:11:00,68.7,38.5,29.53,NW,310,2.7,2.7,33,0.00,,CLR,0.00,VWS V14.01,2013-08-23 12:11:00,
2013-08-23 08:16:00,68.9,32.6,29.53,NE,46,0.0,0.0,26,0.00,,CLR,0.00,VWS V14.01,2013-08-23 12:16:00,
2013-08-23 08:21:00,69.4,31.1,29.53,NW,311,2.7,2.7,24,0.00,,CLR,0.00,VWS V14.01,2013-08-23 12:21:00,
2013-08-23 08:26:00,69.6,30.2,29.53,NW,323,2.2,4.0,23,0.00,,CLR,0.00,VWS V14.01,2013-08-23 12:26:00,
2013-08-23 08:31:00,69.6,30.2,29.53,North,353,0.0,4.0,23,0.00,,CLR,0.00,VWS V14.01,2013-08-23 12:31:00,
2013-08-23 08:36:00,69.8,29.3,29.53,WNW,295,0.0,0.0,22,0.00,,CLR,0.00,VWS V14.01,2013-08-23 12:36:00,
2013-08-23 08:41:00,70.0,30.5,29.53,WNW,295,0.0,0.0,23,0.00,,CLR,0.00,VWS V14.01,2013-08-23 12:41:00,
2013-08-23 08:46:00,70.0,30.5,29.53,NW,304,0.0,0.0,23,0.00,,CLR,0.00,VWS V14.01,2013-08-23 12:46:00,
2013-08-23 08:51:00,70.0,30.5,29.53,WNW,292,0.0,0.0,23,0.00,,CLR,0.00,VWS V14.01,2013-08-23 12:51:00,
2013-08-23 08:56:00,70.0,29.4,29.53,NNW,332,0.0,3.6,22,0.00,,CLR,0.00,VWS V14.01,2013-08-23 12:56:00,
2013-08-23 09:01:00,70.0,29.4,29.53,NW,312,2.2,3.6,22,0.00,,CLR,0.00,VWS V14.01,2013-08-23 13:01:00,
2013-08-23 09:06:00,70.2,30.7,29.53,NW,312,0.0,3.6,23,0.00,,CLR,0.00,VWS V14.01,2013-08-23 13:06:00,
2013-08-23 09:11:00,70.2,30.7,29.53,NW,312,0.0,0.0,23,0.00,,CLR,0.00,VWS V14.01,2013-08-23 13:11:00,
2013-08-23 09:16:00,70.2,29.6,29.53,NW,315,0.0,0.0,22,0.00,,CLR,0.00,VWS V14.01,2013-08-23 13:16:00,
2013-08-23 09:21:00,70.2,29.6,29.53,West,275,0.0,0.0,22,0.00,,CLR,0.00,VWS V14.01,2013-08-23 13:21:00,
2013-08-23 09:26:00,70.3,29.7,29.53,NNW,330,3.6,3.6,22,0.00,,CLR,0.00,VWS V14.01,2013-08-23 13:26:00,
2013-08-23 09:31:00,70.5,29.9,29.53,WNW,303,0.0,0.0,22,0.00,,CLR,0.00,VWS V14.01,2013-08-23 13:31:00,
2013-08-23 09:36:00,70.7,30.0,29.53,NW,305,0.0,0.0,22,0.00,,CLR,0.00,VWS V14.01,2013-08-23 13:36:00,
2013-08-23 09:41:00,71.1,26.8,29.56,WNW,283,3.6,5.4,19,0.00,,CLR,0.00,VWS V14.01,2013-08-23 13:41:00,
2013-08-23 09:46:00,71.6,27.2,29.56,North,0,0.0,0.0,19,0.00,,CLR,0.00,VWS V14.01,2013-08-23 13:46:00,
2013-08-23 09:51:00,72.0,27.5,29.56,NW,326,0.0,0.0,19,0.00,,CLR,0.00,VWS V14.01,2013-08-23 13:51:00,
2013-08-23 09:56:00,72.5,27.9,29.56,NW,308,0.0,0.0,19,0.00,,CLR,0.00,VWS V14.01,2013-08-23 13:56:00,
2013-08-23 10:01:00,72.9,24.1,29.56,West,266,0.0,0.0,16,0.00,,CLR,0.00,VWS V14.01,2013-08-23 14:01:00,
2013-08-23 10:06:00,72.9,24.1,29.56,NW,314,0.0,0.0,16,0.00,,CLR,0.00,VWS V14.01,2013-08-23 14:06:00,
2013-08-23 10:11:00,72.9,28.2,29.56,NNW,328,0.0,0.0,19,0.00,,CLR,0.00,VWS V14.01,2013-08-23 14:11:00,
2013-08-23 10:16:00,73.0,28.4,29.56,NW,312,0.0,0.0,19,0.00,,CLR,0.00,VWS V14.01,2013-08-23 14:16:00,
2013-08-23 10:21:00,73.2,24.4,29.56,WNW,293,3.1,6.3,16,0.00,,CLR,0.00,VWS V14.01,2013-08-23 14:21:00,
2013-08-23 10:26:00,73.6,24.7,29.56,NW,309,3.1,3.1,16,0.00,,CLR,0.00,VWS V14.01,2013-08-23 14:26:00,
2013-08-23 10:31:00,73.9,25.0,29.56,NW,308,6.7,6.7,16,0.00,,CLR,0.00,VWS V14.01,2013-08-23 14:31:00,
2013-08-23 10:36:00,74.1,20.2,29.56,NW,323,6.3,6.3,13,0.00,,CLR,0.00,VWS V14.01,2013-08-23 14:36:00,
2013-08-23 10:41:00,74.3,20.3,29.56,NNW,346,0.0,0.0,13,0.00,,CLR,0.00,VWS V14.01,2013-08-23 14:41:00,
2013-08-23 10:46:00,74.3,20.3,29.56,WNW,301,3.6,3.6,13,0.00,,CLR,0.00,VWS V14.01,2013-08-23 14:46:00,
2013-08-23 10:51:00,74.5,20.5,29.56,WNW,282,3.1,3.6,13,0.00,,CLR,0.00,VWS V14.01,2013-08-23 14:51:00,
2013-08-23 10:56:00,75.0,20.9,29.56,WNW,288,3.6,3.6,13,0.00,,CLR,0.00,VWS V14.01,2013-08-23 14:56:00,
2013-08-23 11:01:00,75.2,21.0,29.56,NW,310,0.0,5.4,13,0.00,,CLR,0.00,VWS V14.01,2013-08-23 15:01:00,
2013-08-23 11:06:00,75.0,20.9,29.56,NW,319,2.7,2.7,13,0.00,,CLR,0.00,VWS V14.01,2013-08-23 15:06:00,
2013-08-23 11:11:00,75.4,21.2,29.56,East,79,0.0,0.0,13,0.00,,CLR,0.00,VWS V14.01,2013-08-23 15:11:00,
2013-08-23 11:16:00,75.9,21.6,29.56,NW,311,3.6,3.6,13,0.00,,CLR,0.00,VWS V14.01,2013-08-23 15:16:00,
2013-08-23 11:21:00,76.3,21.9,29.56,NW,310,4.9,4.9,13,0.00,,CLR,0.00,VWS V14.01,2013-08-23 15:21:00,
2013-08-23 11:26:00,77.0,22.4,29.56,NE,37,3.1,3.1,13,0.00,,CLR,0.00,VWS V14.01,2013-08-23 15:26:00,
2013-08-23 11:31:00,77.0,22.4,29.56,NW,306,5.8,5.8,13,0.00,,CLR,0.00,VWS V14.01,2013-08-23 15:31:00,
2013-08-23 11:36:00,76.8,22.3,29.56,WNW,293,6.3,6.3,13,0.00,,CLR,0.00,VWS V14.01,2013-08-23 15:36:00,
2013-08-23 11:41:00,76.8,22.3,29.56,WSW,237,4.0,4.0,13,0.00,,CLR,0.00,VWS V14.01,2013-08-23 15:41:00,
2013-08-23 11:46:00,77.0,22.4,29.56,NW,305,3.6,3.6,13,0.00,,CLR,0.00,VWS V14.01,2013-08-23 15:46:00,
2013-08-23 11:51:00,77.7,23.0,29.53,WNW,292,4.0,4.0,13,0.00,,CLR,0.00,VWS V14.01,2013-08-23 15:51:00,
2013-08-23 11:56:00,78.4,23.6,29.53,NW,314,6.3,6.3,13,0.00,,CLR,0.00,VWS V14.01,2013-08-23 15:56:00,
2013-08-23 12:01:00,78.4,23.6,29.53,North,353,3.1,3.1,13,0.00,,CLR,0.00,VWS V14.01,2013-08-23 16:01:00,
2013-08-23 12:06:00,78.4,23.6,29.53,NW,307,2.7,2.7,13,0.00,,CLR,0.00,VWS V14.01,2013-08-23 16:06:00,
2013-08-23 12:11:00,78.6,23.7,29.53,NNW,342,3.1,3.1,13,0.00,,CLR,0.00,VWS V14.01,2013-08-23 16:11:00,
2013-08-23 12:16:00,77.9,23.1,29.53,NNW,346,2.7,8.1,13,0.00,,CLR,0.00,VWS V14.01,2013-08-23 16:16:00,
2013-08-23 12:22:00,77.5,22.9,29.53,North,353,3.6,3.6,13,0.00,,CLR,0.00,VWS V14.01,2013-08-23 16:22:00,
2013-08-23 12:27:00,77.0,22.4,29.53,NW,318,10.1,10.1,13,0.00,,CLR,0.00,VWS V14.01,2013-08-23 16:27:00,
2013-08-23 12:32:00,77.2,22.6,29.53,WNW,283,4.9,4.9,13,0.00,,CLR,0.00,VWS V14.01,2013-08-23 16:32:00,
2013-08-23 12:37:00,77.4,22.7,29.53,ENE,58,2.7,3.6,13,0.00,,CLR,0.00,VWS V14.01,2013-08-23 16:37:00,
2013-08-23 12:42:00,77.5,22.9,29.53,WNW,303,3.1,3.1,13,0.00,,CLR,0.00,VWS V14.01,2013-08-23 16:42:00,
2013-08-23 12:47:00,78.3,23.4,29.53,NW,311,5.8,5.8,13,0.00,,CLR,0.00,VWS V14.01,2013-08-23 16:47:00,
2013-08-23 12:52:00,78.3,23.4,29.53,ENE,57,2.2,2.2,13,0.00,,CLR,0.00,VWS V14.01,2013-08-23 16:52:00,
2013-08-23 12:57:00,78.4,23.6,29.56,West,278,0.0,0.0,13,0.00,,CLR,0.00,VWS V14.01,2013-08-23 16:57:00,
2013-08-23 13:02:00,78.3,23.4,29.56,NNW,336,2.7,2.7,13,0.00,,CLR,0.00,VWS V14.01,2013-08-23 17:02:00,
2013-08-23 13:07:00,78.1,23.3,29.56,NE,39,0.0,0.0,13,0.00,,CLR,0.00,VWS V14.01,2013-08-23 17:07:00,
2013-08-23 13:12:00,77.7,23.0,29.56,North,353,0.0,0.0,13,0.00,,CLR,0.00,VWS V14.01,2013-08-23 17:12:00,
2013-08-23 13:17:00,77.9,23.1,29.56,NE,34,0.0,2.7,13,0.00,,CLR,0.00,VWS V14.01,2013-08-23 17:17:00,
2013-08-23 13:22:00,77.9,23.1,29.56,NW,311,3.6,3.6,13,0.00,,CLR,0.00,VWS V14.01,2013-08-23 17:22:00,
2013-08-23 13:27:00,77.9,23.1,29.56,NE,43,0.0,0.0,13,0.00,,CLR,0.00,VWS V14.01,2013-08-23 17:27:00,
2013-08-23 13:32:00,78.1,23.3,29.56,NNW,332,3.6,3.6,13,0.00,,CLR,0.00,VWS V14.01,2013-08-23 17:32:00,
2013-08-23 13:37:00,78.1,23.3,29.56,NNW,329,4.9,4.9,13,0.00,,CLR,0.00,VWS V14.01,2013-08-23 17:37:00,
2013-08-23 13:42:00,78.4,23.6,29.56,NNW,337,2.2,2.2,13,0.00,,CLR,0.00,VWS V14.01,2013-08-23 17:42:00,
2013-08-23 13:47:00,78.6,23.7,29.56,North,353,0.0,4.9,13,0.00,,CLR,0.00,VWS V14.01,2013-08-23 17:47:00,
2013-08-23 13:52:00,79.0,22.1,29.56,West,268,0.0,0.0,12,0.00,,CLR,0.00,VWS V14.01,2013-08-23 17:52:00,
2013-08-23 13:57:00,79.2,22.2,29.56,NW,326,0.0,0.0,12,0.00,,CLR,0.00,VWS V14.01,2013-08-23 17:57:00,
2013-08-23 14:02:00,79.7,22.6,29.56,WNW,302,3.6,3.6,12,0.00,,CLR,0.00,VWS V14.01,2013-08-23 18:02:00,
2013-08-23 14:07:00,79.9,22.8,29.56,NW,323,0.0,0.0,12,0.00,,CLR,0.00,VWS V14.01,2013-08-23 18:07:00,
2013-08-23 14:12:00,80.1,22.9,29.56,NE,45,2.2,2.2,12,0.00,,CLR,0.00,VWS V14.01,2013-08-23 18:12:00,
2013-08-23 14:17:00,80.2,23.1,29.56,South,184,3.6,3.6,12,0.00,,CLR,0.00,VWS V14.01,2013-08-23 18:17:00,
2013-08-23 14:22:00,81.0,23.6,29.56,NNW,337,3.1,3.1,12,0.00,,CLR,0.00,VWS V14.01,2013-08-23 18:22:00,
2013-08-23 14:27:00,81.0,23.6,29.56,NW,316,5.4,5.4,12,0.00,,CLR,0.00,VWS V14.01,2013-08-23 18:27:00,
2013-08-23 14:32:00,79.9,22.8,29.56,NNW,346,0.0,0.0,12,0.00,,CLR,0.00,VWS V14.01,2013-08-23 18:32:00,
2013-08-23 14:37:00,80.1,22.9,29.56,NNW,334,2.2,3.6,12,0.00,,CLR,0.00,VWS V14.01,2013-08-23 18:37:00,
2013-08-23 14:42:00,79.9,22.8,29.56,NW,313,2.7,2.7,12,0.00,,CLR,0.00,VWS V14.01,2013-08-23 18:42:00,
2013-08-23 14:47:00,79.7,22.6,29.56,NW,322,0.0,0.0,12,0.00,,CLR,0.00,VWS V14.01,2013-08-23 18:47:00,
2013-08-23 14:52:00,79.7,22.6,29.56,NE,39,0.0,0.0,12,0.00,,CLR,0.00,VWS V14.01,2013-08-23 18:52:00,
2013-08-23 14:57:00,79.5,22.5,29.56,WNW,288,5.4,5.4,12,0.00,,CLR,0.00,VWS V14.01,2013-08-23 18:57:00,
2013-08-23 15:02:00,79.2,22.2,29.56,NNW,327,5.8,5.8,12,0.00,,CLR,0.00,VWS V14.01,2013-08-23 19:02:00,
2013-08-23 15:07:00,79.0,22.1,29.56,North,349,4.0,4.0,12,0.00,,CLR,0.00,VWS V14.01,2013-08-23 19:07:00,
2013-08-23 15:12:00,79.0,22.1,29.53,NW,309,3.1,3.1,12,0.00,,CLR,0.00,VWS V14.01,2013-08-23 19:12:00,
2013-08-23 15:17:00,78.8,22.0,29.53,NW,304,0.0,0.0,12,0.00,,CLR,0.00,VWS V14.01,2013-08-23 19:17:00,
2013-08-23 15:22:00,78.6,23.7,29.53,NW,319,4.9,4.9,13,0.00,,CLR,0.00,VWS V14.01,2013-08-23 19:22:00,
2013-08-23 15:27:00,78.6,23.7,29.53,NNW,331,2.7,2.7,13,0.00,,CLR,0.00,VWS V14.01,2013-08-23 19:27:00,
2013-08-23 15:32:00,78.6,23.7,29.53,NNW,332,0.0,0.0,13,0.00,,CLR,0.00,VWS V14.01,2013-08-23 19:32:00,
2013-08-23 15:37:00,78.4,23.6,29.53,NW,304,2.2,2.2,13,0.00,,CLR,0.00,VWS V14.01,2013-08-23 19:37:00,
2013-08-23 15:42:00,78.4,23.6,29.53,WNW,300,0.0,0.0,13,0.00,,CLR,0.00,VWS V14.01,2013-08-23 19:42:00,
2013-08-23 15:47:00,78.3,23.4,29.53,NW,310,0.0,0.0,13,0.00,,CLR,0.00,VWS V14.01,2013-08-23 19:47:00,
2013-08-23 15:52:00,78.4,23.6,29.56,NNE,29,0.0,0.0,13,0.00,,CLR,0.00,VWS V14.01,2013-08-23 19:52:00,
2013-08-23 15:57:00,78.4,23.6,29.56,East,97,0.0,0.0,13,0.00,,CLR,0.00,VWS V14.01,2013-08-23 19:57:00,
2013-08-23 16:02:00,78.4,23.6,29.56,NNW,329,0.0,0.0,13,0.00,,SCT055,0.00,VWS V14.01,2013-08-23 20:02:00,
2013-08-23 16:07:00,78.3,23.4,29.56,North,0,0.0,0.0,13,0.00,,SCT055,0.00,VWS V14.01,2013-08-23 20:07:00,
2013-08-23 16:12:00,78.4,23.6,29.53,WNW,297,0.0,0.0,13,0.00,,SCT055,0.00,VWS V14.01,2013-08-23 20:12:00,
2013-08-23 16:17:00,78.4,23.6,29.53,NW,324,2.2,2.2,13,0.00,,SCT055,0.00,VWS V14.01,2013-08-23 20:17:00,
2013-08-23 16:22:00,78.4,23.6,29.53,NW,306,0.0,0.0,13,0.00,,SCT055,0.00,VWS V14.01,2013-08-23 20:22:00,
2013-08-23 16:27:00,78.1,23.3,29.53,WNW,298,0.0,2.2,13,0.00,,SCT055,0.00,VWS V14.01,2013-08-23 20:27:00,
2013-08-23 16:32:00,77.9,23.1,29.53,WNW,298,0.0,0.0,13,0.00,,SCT055,0.00,VWS V14.01,2013-08-23 20:32:00,
2013-08-23 16:37:00,77.9,23.1,29.53,NW,325,0.0,0.0,13,0.00,,SCT055,0.00,VWS V14.01,2013-08-23 20:37:00,
2013-08-23 16:42:00,77.4,22.7,29.56,NW,325,0.0,0.0,13,0.00,,SCT055,0.00,VWS V14.01,2013-08-23 20:42:00,
2013-08-23 16:47:00,77.2,22.6,29.56,NW,325,0.0,0.0,13,0.00,,SCT055,0.00,VWS V14.01,2013-08-23 20:47:00,
2013-08-23 16:52:00,77.2,22.6,29.56,NNW,331,3.1,3.1,13,0.00,,SCT055,0.00,VWS V14.01,2013-08-23 20:52:00,
2013-08-23 16:57:00,77.0,22.4,29.56,WNW,302,0.0,0.0,13,0.00,,SCT055,0.00,VWS V14.01,2013-08-23 20:57:00,
2013-08-23 17:02:00,77.0,22.4,29.56,WNW,302,0.0,0.0,13,0.00,,CLR,0.00,VWS V14.01,2013-08-23 21:02:00,
2013-08-23 17:07:00,77.2,22.6,29.56,NW,304,0.0,0.0,13,0.00,,CLR,0.00,VWS V14.01,2013-08-23 21:07:00,
2013-08-23 17:12:00,77.2,22.6,29.56,North,0,0.0,0.0,13,0.00,,CLR,0.00,VWS V14.01,2013-08-23 21:12:00,
2013-08-23 17:17:00,77.2,22.6,29.56,North,11,0.0,0.0,13,0.00,,CLR,0.00,VWS V14.01,2013-08-23 21:17:00,
2013-08-23 17:22:00,77.0,22.4,29.56,NW,321,0.0,0.0,13,0.00,,CLR,0.00,VWS V14.01,2013-08-23 21:22:00,
2013-08-23 17:27:00,76.8,22.3,29.56,NNE,17,2.2,2.2,13,0.00,,CLR,0.00,VWS V14.01,2013-08-23 21:27:00,
2013-08-23 17:32:00,76.5,22.0,29.56,NW,313,2.2,2.2,13,0.00,,CLR,0.00,VWS V14.01,2013-08-23 21:32:00,
2013-08-23 17:37:00,76.1,21.7,29.56,North,357,2.2,2.2,13,0.00,,CLR,0.00,VWS V14.01,2013-08-23 21:37:00,
2013-08-23 17:42:00,76.1,21.7,29.53,NNW,338,0.0,0.0,13,0.00,,CLR,0.00,VWS V14.01,2013-08-23 21:42:00,
2013-08-23 17:47:00,76.5,22.0,29.53,North,0,0.0,0.0,13,0.00,,CLR,0.00,VWS V14.01,2013-08-23 21:47:00,
2013-08-23 17:52:00,76.6,22.1,29.53,NNW,337,0.0,0.0,13,0.00,,CLR,0.00,VWS V14.01,2013-08-23 21:52:00,
2013-08-23 17:57:00,76.8,22.3,29.56,NNW,333,3.6,3.6,13,0.00,,CLR,0.00,VWS V14.01,2013-08-23 21:57:00,
2013-08-23 18:02:00,76.6,22.1,29.56,NNW,341,3.1,3.1,13,0.00,,CLR,0.00,VWS V14.01,2013-08-23 22:02:00,
2013-08-23 18:07:00,76.5,22.0,29.56,South,190,2.7,2.7,13,0.00,,CLR,0.00,VWS V14.01,2013-08-23 22:07:00,
2013-08-23 18:12:00,76.3,21.9,29.56,NNW,327,2.7,2.7,13,0.00,,CLR,0.00,VWS V14.01,2013-08-23 22:12:00,
2013-08-23 18:17:00,76.3,21.9,29.56,NNW,335,0.0,0.0,13,0.00,,CLR,0.00,VWS V14.01,2013-08-23 22:17:00,
2013-08-23 18:22:00,76.1,21.7,29.56,West,277,4.9,4.9,13,0.00,,CLR,0.00,VWS V14.01,2013-08-23 22:22:00,
2013-08-23 18:27:00,75.9,21.6,29.56,NW,309,0.0,0.0,13,0.00,,CLR,0.00,VWS V14.01,2013-08-23 22:27:00,
2013-08-23 18:32:00,75.7,21.5,29.56,NW,308,2.7,2.7,13,0.00,,CLR,0.00,VWS V14.01,2013-08-23 22:32:00,
2013-08-23 18:37:00,75.6,21.3,29.56,NW,316,3.6,3.6,13,0.00,,CLR,0.00,VWS V14.01,2013-08-23 22:37:00,
2013-08-23 18:42:00,75.6,21.3,29.56,NW,307,0.0,0.0,13,0.00,,CLR,0.00,VWS V14.01,2013-08-23 22:42:00,
2013-08-23 18:47:00,75.2,21.0,29.56,NW,311,2.7,2.7,13,0.00,,CLR,0.00,VWS V14.01,2013-08-23 22:47:00,
2013-08-23 18:52:00,75.0,20.9,29.56,WSW,244,3.1,3.1,13,0.00,,CLR,0.00,VWS V14.01,2013-08-23 22:52:00,
2013-08-23 18:57:00,74.8,20.7,29.56,NW,310,2.7,2.7,13,0.00,,CLR,0.00,VWS V14.01,2013-08-23 22:57:00,
2013-08-23 19:02:00,74.8,20.7,29.56,NW,308,0.0,2.2,13,0.00,,CLR,0.00,VWS V14.01,2013-08-23 23:02:00,
2013-08-23 19:07:00,74.5,20.5,29.59,NW,312,2.7,2.7,13,0.00,,CLR,0.00,VWS V14.01,2013-08-23 23:07:00,
2013-08-23 19:12:00,73.9,20.0,29.59,NNW,331,3.1,3.1,13,0.00,,CLR,0.00,VWS V14.01,2013-08-23 23:12:00,
2013-08-23 19:17:00,73.6,19.8,29.59,NW,321,0.0,0.0,13,0.00,,CLR,0.00,VWS V14.01,2013-08-23 23:17:00,
2013-08-23 19:22:00,73.2,21.2,29.59,NW,322,0.0,0.0,14,0.00,,CLR,0.00,VWS V14.01,2013-08-23 23:22:00,
2013-08-23 19:27:00,72.9,20.9,29.59,NNE,13,0.0,0.0,14,0.00,,CLR,0.00,VWS V14.01,2013-08-23 23:27:00,
2013-08-23 19:32:00,72.3,23.6,29.59,NNE,13,0.0,0.0,16,0.00,,CLR,0.00,VWS V14.01,2013-08-23 23:32:00,
2013-08-23 19:37:00,71.8,23.2,29.59,NNE,13,0.0,0.0,16,0.00,,CLR,0.00,VWS V14.01,2013-08-23 23:37:00,
2013-08-23 19:42:00,71.6,23.1,29.59,NNE,13,0.0,0.0,16,0.00,,CLR,0.00,VWS V14.01,2013-08-23 23:42:00,
2013-08-23 19:47:00,70.5,26.3,29.59,NNE,19,0.0,0.0,19,0.00,,CLR,0.00,VWS V14.01,2013-08-23 23:47:00,
2013-08-23 19:52:00,70.3,26.2,29.59,NNE,22,0.0,0.0,19,0.00,,CLR,0.00,VWS V14.01,2013-08-23 23:52:00,
2013-08-23 19:57:00,69.4,29.0,29.59,NNE,22,0.0,0.0,22,0.00,,CLR,0.00,VWS V14.01,2013-08-23 23:57:00,
2013-08-23 20:02:00,68.9,28.5,29.59,NNE,22,0.0,0.0,22,0.00,,CLR,0.00,VWS V14.01,2013-08-24 00:02:00,
2013-08-23 20:07:00,68.7,29.5,29.59,NNE,22,0.0,0.0,23,0.00,,CLR,0.00,VWS V14.01,2013-08-24 00:07:00,
2013-08-23 20:12:00,68.2,29.0,29.59,NNE,22,0.0,0.0,23,0.00,,CLR,0.00,VWS V14.01,2013-08-24 00:12:00,
2013-08-23 20:17:00,68.2,29.0,29.59,NNE,22,0.0,0.0,23,0.00,,CLR,0.00,VWS V14.01,2013-08-24 00:17:00,
2013-08-23 20:22:00,67.6,29.6,29.62,NNE,22,0.0,0.0,24,0.00,,CLR,0.00,VWS V14.01,2013-08-24 00:22:00,
2013-08-23 20:27:00,67.5,29.4,29.62,NNE,22,0.0,0.0,24,0.00,,CLR,0.00,VWS V14.01,2013-08-24 00:27:00,
2013-08-23 20:32:00,67.1,29.1,29.62,NNE,22,0.0,0.0,24,0.00,,CLR,0.00,VWS V14.01,2013-08-24 00:32:00,
2013-08-23 20:37:00,66.9,30.0,29.62,NNE,22,0.0,0.0,25,0.00,,CLR,0.00,VWS V14.01,2013-08-24 00:37:00,
2013-08-23 20:42:00,66.6,29.7,29.62,NNE,22,0.0,0.0,25,0.00,,CLR,0.00,VWS V14.01,2013-08-24 00:42:00,
2013-08-23 20:47:00,66.6,29.7,29.62,NNE,22,0.0,0.0,25,0.00,,CLR,0.00,VWS V14.01,2013-08-24 00:47:00,
2013-08-23 20:52:00,66.0,31.1,29.62,SSE,153,0.0,0.0,27,0.00,,CLR,0.00,VWS V14.01,2013-08-24 00:52:00,
2013-08-23 20:57:00,65.8,31.0,29.62,SSE,153,0.0,0.0,27,0.00,,CLR,0.00,VWS V14.01,2013-08-24 00:57:00,
2013-08-23 21:02:00,65.7,30.8,29.62,SSE,153,0.0,0.0,27,0.00,,CLR,0.00,VWS V14.01,2013-08-24 01:02:00,
2013-08-23 21:07:00,65.5,33.3,29.62,SSE,153,0.0,0.0,30,0.00,,CLR,0.00,VWS V14.01,2013-08-24 01:07:00,
2013-08-23 21:12:00,65.3,35.5,29.62,SSE,153,0.0,0.0,33,0.00,,CLR,0.00,VWS V14.01,2013-08-24 01:12:00,
2013-08-23 21:17:00,65.1,35.3,29.62,SSE,152,0.0,0.0,33,0.00,,CLR,0.00,VWS V14.01,2013-08-24 01:17:00,
2013-08-23 21:22:00,64.8,35.0,29.62,SSE,152,0.0,0.0,33,0.00,,CLR,0.00,VWS V14.01,2013-08-24 01:22:00,
2013-08-23 21:27:00,64.8,35.8,29.62,SSE,152,0.0,0.0,34,0.00,,CLR,0.00,VWS V14.01,2013-08-24 01:27:00,
2013-08-23 21:32:00,64.4,35.5,29.62,SSE,152,0.0,0.0,34,0.00,,CLR,0.00,VWS V14.01,2013-08-24 01:32:00,
2013-08-23 21:37:00,64.4,36.2,29.62,SSE,152,0.0,0.0,35,0.00,,CLR,0.00,VWS V14.01,2013-08-24 01:37:00,
2013-08-23 21:42:00,64.2,36.0,29.62,SSE,152,0.0,0.0,35,0.00,,CLR,0.00,VWS V14.01,2013-08-24 01:42:00,
2013-08-23 21:47:00,64.0,35.9,29.62,SSE,152,0.0,0.0,35,0.00,,CLR,0.00,VWS V14.01,2013-08-24 01:47:00,
2013-08-23 21:52:00,63.9,36.4,29.62,SSE,152,0.0,0.0,36,0.00,,CLR,0.00,VWS V14.01,2013-08-24 01:52:00,
2013-08-23 21:57:00,63.7,36.2,29.65,SSE,152,0.0,0.0,36,0.00,,CLR,0.00,VWS V14.01,2013-08-24 01:57:00,
2013-08-23 22:02:00,63.5,36.1,29.65,SSE,152,0.0,0.0,36,0.00,,CLR,0.00,VWS V14.01,2013-08-24 02:02:00,
2013-08-23 22:07:00,63.3,35.9,29.65,SSE,152,0.0,0.0,36,0.00,,CLR,0.00,VWS V14.01,2013-08-24 02:07:00,
2013-08-23 22:12:00,63.1,35.8,29.65,SSE,152,0.0,0.0,36,0.00,,CLR,0.00,VWS V14.01,2013-08-24 02:12:00,
2013-08-23 22:17:00,63.1,35.8,29.65,SSE,152,0.0,0.0,36,0.00,,CLR,0.00,VWS V14.01,2013-08-24 02:17:00,
2013-08-23 22:22:00,63.0,35.6,29.65,SSE,152,0.0,0.0,36,0.00,,CLR,0.00,VWS V14.01,2013-08-24 02:22:00,
2013-08-23 22:27:00,62.8,35.5,29.65,SSE,152,0.0,0.0,36,0.00,,CLR,0.00,VWS V14.01,2013-08-24 02:27:00,
2013-08-23 22:32:00,62.6,35.3,29.65,SSE,152,0.0,0.0,36,0.00,,CLR,0.00,VWS V14.01,2013-08-24 02:32:00,
2013-08-23 22:37:00,62.6,34.6,29.65,SSE,152,0.0,0.0,35,0.00,,CLR,0.00,VWS V14.01,2013-08-24 02:37:00,
2013-08-23 22:42:00,62.4,34.4,29.65,SSE,152,0.0,0.0,35,0.00,,CLR,0.00,VWS V14.01,2013-08-24 02:42:00,
2013-08-23 22:47:00,62.4,34.4,29.65,SSE,152,0.0,0.0,35,0.00,,CLR,0.00,VWS V14.01,2013-08-24 02:47:00,
2013-08-23 22:52:00,62.1,34.1,29.65,SSE,152,0.0,0.0,35,0.00,,CLR,0.00,VWS V14.01,2013-08-24 02:52:00,
2013-08-23 22:57:00,61.9,34.0,29.65,SSE,152,0.0,0.0,35,0.00,,CLR,0.00,VWS V14.01,2013-08-24 02:57:00,
2013-08-23 23:02:00,61.7,33.1,29.65,SSE,152,0.0,0.0,34,0.00,,CLR,0.00,VWS V14.01,2013-08-24 03:02:00,
2013-08-23 23:07:00,61.5,32.9,29.65,SSE,152,0.0,0.0,34,0.00,,CLR,0.00,VWS V14.01,2013-08-24 03:07:00,
2013-08-23 23:12:00,61.5,32.9,29.65,SSE,152,0.0,0.0,34,0.00,,CLR,0.00,VWS V14.01,2013-08-24 03:12:00,
2013-08-23 23:17:00,61.3,32.8,29.65,SSE,152,0.0,0.0,34,0.00,,CLR,0.00,VWS V14.01,2013-08-24 03:17:00,
2013-08-23 23:22:00,61.3,32.8,29.65,SSE,152,0.0,0.0,34,0.00,,CLR,0.00,VWS V14.01,2013-08-24 03:22:00,
2013-08-23 23:27:00,61.2,32.6,29.65,SSE,152,0.0,0.0,34,0.00,,CLR,0.00,VWS V14.01,2013-08-24 03:27:00,
2013-08-23 23:32:00,61.0,32.4,29.65,SSE,152,0.0,0.0,34,0.00,,CLR,0.00,VWS V14.01,2013-08-24 03:32:00,
2013-08-23 23:37:00,61.0,32.4,29.68,SSE,152,0.0,0.0,34,0.00,,CLR,0.00,VWS V14.01,2013-08-24 03:37:00,
2013-08-23 23:42:00,60.8,31.5,29.68,SSE,152,0.0,0.0,33,0.00,,CLR,0.00,VWS V14.01,2013-08-24 03:42:00,
2013-08-23 23:47:00,60.8,31.5,29.68,SSE,152,0.0,0.0,33,0.00,,CLR,0.00,VWS V14.01,2013-08-24 03:47:00,
2013-08-23 23:52:00,60.6,30.6,29.68,SSE,152,0.0,0.0,32,0.00,,CLR,0.00,VWS V14.01,2013-08-24 03:52:00,
2013-08-23 23:57:00,60.6,30.6,29.68,SSE,152,0.0,0.0,32,0.00,,CLR,0.00,VWS V14.01,2013-08-24 03:57:00,